createdAt,value
2018-08-04T00:03:14.890Z,27.40
2018-08-04T00:05:43.777Z,27.30
2018-08-04T00:08:12.657Z,27.30
2018-08-04T00:10:41.558Z,27.30
2018-08-04T00:13:10.465Z,27.30
2018-08-04T00:15:39.398Z,27.20
2018-08-04T00:18:08.337Z,27.10
2018-08-04T00:20:38.137Z,27.20
2018-08-04T00:23:07.054Z,27.10
2018-08-04T00:25:36.022Z,27.10
2018-08-04T00:28:05.088Z,27.10
2018-08-04T00:30:33.939Z,27.20
2018-08-04T00:33:02.837Z,27.00
2018-08-04T00:35:31.730Z,27.00
2018-08-04T00:38:00.603Z,27.10
2018-08-04T00:40:29.466Z,27.20
2018-08-04T00:42:58.335Z,27.10
2018-08-04T00:45:27.180Z,27.10
2018-08-04T00:47:56.065Z,27.20
2018-08-04T00:50:24.936Z,27.20
2018-08-04T00:52:53.789Z,27.10
2018-08-04T00:55:22.657Z,27.00
2018-08-04T00:57:51.526Z,26.90
2018-08-04T01:00:20.408Z,26.90
2018-08-04T01:02:49.278Z,26.70
2018-08-04T01:05:18.122Z,26.60
2018-08-04T01:07:46.990Z,26.80
2018-08-04T01:10:15.917Z,26.90
2018-08-04T01:12:44.843Z,26.80
2018-08-04T01:15:13.735Z,26.90
2018-08-04T01:17:42.604Z,26.70
2018-08-04T01:20:11.593Z,26.70
2018-08-04T01:22:40.581Z,26.60
2018-08-04T01:25:09.554Z,26.90
2018-08-04T01:27:38.496Z,27.00
2018-08-04T01:30:08.259Z,26.90
2018-08-04T01:32:37.273Z,26.90
2018-08-04T01:35:06.193Z,26.70
2018-08-04T01:37:35.071Z,26.60
2018-08-04T01:40:05.286Z,26.70
2018-08-04T01:42:34.177Z,26.60
2018-08-04T01:45:03.026Z,26.60
2018-08-04T01:47:31.909Z,26.50
2018-08-04T01:50:00.889Z,26.40
2018-08-04T01:52:29.761Z,26.50
2018-08-04T01:54:58.634Z,26.50
2018-08-04T01:57:27.508Z,26.60
2018-08-04T01:59:56.381Z,26.50
2018-08-04T02:02:25.264Z,26.40
2018-08-04T02:04:54.132Z,26.60
2018-08-04T02:07:23.099Z,26.70
2018-08-04T02:09:51.959Z,26.70
2018-08-04T02:12:20.836Z,26.70
2018-08-04T02:14:49.756Z,26.60
2018-08-04T02:17:18.620Z,26.40
2018-08-04T02:19:47.513Z,26.30
2018-08-04T02:22:16.422Z,26.40
2018-08-04T02:24:45.394Z,26.70
2018-08-04T02:27:14.248Z,26.60
2018-08-04T02:29:43.191Z,26.30
2018-08-04T02:32:12.098Z,26.20
2018-08-04T02:34:40.990Z,26.10
2018-08-04T02:37:09.953Z,26.30
2018-08-04T02:39:38.996Z,26.40
2018-08-04T02:42:08.045Z,26.50
2018-08-04T02:44:37.045Z,26.20
2018-08-04T02:47:08.076Z,26.10
2018-08-04T02:49:37.168Z,26.00
2018-08-04T02:52:06.175Z,26.00
2018-08-04T02:54:35.104Z,25.90
2018-08-04T02:57:03.953Z,26.00
2018-08-04T02:59:32.809Z,25.90
2018-08-04T03:02:01.694Z,25.90
2018-08-04T03:04:30.580Z,25.90
2018-08-04T03:09:28.076Z,25.80
2018-08-04T03:11:56.968Z,25.80
2018-08-04T03:14:25.836Z,25.90
2018-08-04T03:16:54.711Z,26.10
2018-08-04T03:19:23.639Z,26.10
2018-08-04T03:21:52.529Z,26.00
2018-08-04T03:24:21.653Z,25.90
2018-08-04T03:26:50.553Z,25.90
2018-08-04T03:29:19.424Z,25.90
2018-08-04T03:31:48.285Z,25.80
2018-08-04T03:34:17.160Z,25.70
2018-08-04T03:36:46.017Z,25.70
2018-08-04T03:39:14.873Z,25.90
2018-08-04T03:41:43.736Z,26.20
2018-08-04T03:44:12.615Z,26.20
2018-08-04T03:46:41.549Z,26.00
2018-08-04T03:49:10.458Z,26.00
2018-08-04T03:51:41.087Z,26.10
2018-08-04T03:54:10.065Z,26.30
2018-08-04T03:56:38.996Z,26.00
2018-08-04T04:01:36.504Z,25.80
2018-08-04T04:04:05.483Z,25.80
2018-08-04T04:06:34.401Z,25.60
2018-08-04T04:09:03.981Z,25.70
2018-08-04T04:11:32.836Z,25.60
2018-08-04T04:14:01.716Z,25.60
2018-08-04T04:16:30.612Z,25.60
2018-08-04T04:18:59.625Z,25.50
2018-08-04T04:21:28.474Z,25.50
2018-08-04T04:23:57.380Z,25.50
2018-08-04T04:26:26.237Z,25.60
2018-08-04T04:28:55.081Z,25.60
2018-08-04T04:31:24.020Z,25.70
2018-08-04T04:33:58.495Z,25.60
2018-08-04T04:36:27.460Z,25.60
2018-08-04T04:38:56.342Z,25.70
2018-08-04T04:41:25.216Z,25.70
2018-08-04T04:43:54.124Z,25.70
2018-08-04T04:46:23.020Z,25.70
2018-08-04T04:48:51.918Z,25.60
2018-08-04T04:51:20.813Z,25.50
2018-08-04T04:53:49.668Z,25.50
2018-08-04T04:56:18.536Z,25.50
2018-08-04T04:58:47.470Z,25.50
2018-08-04T05:01:16.396Z,25.50
2018-08-04T05:03:45.272Z,25.70
2018-08-04T05:06:14.209Z,25.60
2018-08-04T05:08:43.213Z,25.60
2018-08-04T05:11:12.070Z,25.50
2018-08-04T05:13:40.986Z,25.50
2018-08-04T05:16:09.962Z,25.50
2018-08-04T05:18:38.940Z,25.50
2018-08-04T05:21:07.868Z,25.70
2018-08-04T05:23:37.030Z,25.90
2018-08-04T05:26:05.995Z,25.70
2018-08-04T05:28:35.983Z,25.60
2018-08-04T05:31:05.317Z,25.70
2018-08-04T05:33:34.224Z,25.60
2018-08-04T05:36:03.113Z,25.60
2018-08-04T05:38:32.011Z,25.50
2018-08-04T05:41:00.917Z,25.40
2018-08-04T05:43:29.887Z,25.50
2018-08-04T05:45:58.710Z,25.50
2018-08-04T05:48:27.559Z,25.40
2018-08-04T05:50:56.456Z,25.50
2018-08-04T05:53:25.339Z,25.50
2018-08-04T05:55:54.242Z,25.60
2018-08-04T05:58:23.121Z,25.50
2018-08-04T06:00:52.011Z,25.50
2018-08-04T06:03:20.935Z,25.50
2018-08-04T06:05:49.788Z,25.50
2018-08-04T06:08:18.685Z,25.60
2018-08-04T06:10:47.589Z,25.60
2018-08-04T06:13:16.465Z,25.60
2018-08-04T06:15:45.353Z,25.70
2018-08-04T06:18:14.293Z,25.70
2018-08-04T06:20:43.184Z,26.00
2018-08-04T06:23:12.068Z,25.90
2018-08-04T06:25:41.071Z,25.80
2018-08-04T06:28:10.023Z,25.80
2018-08-04T06:30:39.040Z,25.90
2018-08-04T06:33:08.100Z,25.90
2018-08-04T06:35:37.021Z,25.90
2018-08-04T06:38:06.010Z,26.00
2018-08-04T06:40:35.160Z,26.10
2018-08-04T06:43:04.038Z,26.00
2018-08-04T06:45:33.072Z,26.20
2018-08-04T06:48:01.955Z,26.10
2018-08-04T06:50:30.849Z,25.90
2018-08-04T06:52:59.878Z,25.80
2018-08-04T06:55:29.465Z,25.80
2018-08-04T06:57:58.325Z,25.90
2018-08-04T07:00:27.241Z,25.90
2018-08-04T07:02:56.089Z,25.90
2018-08-04T07:05:25.021Z,26.00
2018-08-04T07:07:53.920Z,25.90
2018-08-04T07:10:22.794Z,25.80
2018-08-04T07:12:51.734Z,25.80
2018-08-04T07:15:20.584Z,25.80
2018-08-04T07:17:49.533Z,25.80
2018-08-04T07:20:18.426Z,25.80
2018-08-04T07:22:47.369Z,25.90
2018-08-04T07:25:16.245Z,26.00
2018-08-04T07:27:45.133Z,26.10
2018-08-04T07:30:15.395Z,26.00
2018-08-04T07:32:45.192Z,26.00
2018-08-04T07:35:14.214Z,26.00
2018-08-04T07:37:43.660Z,26.00
2018-08-04T07:40:12.583Z,26.00
2018-08-04T07:42:41.585Z,25.90
2018-08-04T07:45:10.594Z,26.00
2018-08-04T07:47:39.585Z,26.10
2018-08-04T07:50:08.465Z,26.10
2018-08-04T07:52:37.349Z,26.20
2018-08-04T07:55:07.288Z,26.30
2018-08-04T07:57:36.229Z,26.40
2018-08-04T08:00:06.907Z,26.30
2018-08-04T08:02:35.858Z,26.40
2018-08-04T08:05:04.900Z,26.50
2018-08-04T08:07:33.812Z,26.40
2018-08-04T08:10:02.795Z,26.40
2018-08-04T08:12:33.760Z,26.40
2018-08-04T08:15:07.656Z,26.40
2018-08-04T08:17:36.644Z,26.40
2018-08-04T08:20:05.721Z,26.50
2018-08-04T08:25:03.243Z,26.50
2018-08-04T08:27:32.144Z,26.50
2018-08-04T08:30:01.041Z,26.50
2018-08-04T08:32:29.964Z,26.50
2018-08-04T08:34:58.872Z,26.50
2018-08-04T08:37:27.802Z,26.50
2018-08-04T08:39:56.880Z,26.50
2018-08-04T08:42:26.072Z,26.50
2018-08-04T08:44:54.970Z,26.50
2018-08-04T08:47:23.928Z,26.60
2018-08-04T08:49:52.822Z,26.50
2018-08-04T08:52:21.826Z,26.60
2018-08-04T08:54:50.716Z,26.50
2018-08-04T08:57:20.684Z,26.50
2018-08-04T08:59:49.614Z,26.40
2018-08-04T09:04:47.113Z,26.40
2018-08-04T09:07:16.037Z,26.50
2018-08-04T09:09:44.920Z,26.50
2018-08-04T09:12:13.871Z,26.50
2018-08-04T09:14:43.736Z,26.40
2018-08-04T09:17:12.676Z,26.50
2018-08-04T09:19:41.677Z,26.50
2018-08-04T09:22:10.713Z,26.30
2018-08-04T09:24:39.784Z,26.30
2018-08-04T09:27:10.025Z,26.40
2018-08-04T09:29:39.456Z,26.30
2018-08-04T09:32:08.445Z,26.30
2018-08-04T09:34:37.368Z,26.10
2018-08-04T09:37:06.989Z,26.20
2018-08-04T09:39:35.934Z,26.40
2018-08-04T09:42:04.861Z,26.50
2018-08-04T09:44:34.024Z,26.60
2018-08-04T09:47:03.053Z,26.40
2018-08-04T09:49:31.956Z,26.40
2018-08-04T09:52:00.812Z,26.50
2018-08-04T09:54:29.681Z,26.40
2018-08-04T09:56:58.624Z,26.50
2018-08-04T09:59:27.562Z,26.50
2018-08-04T10:02:01.803Z,26.40
2018-08-04T10:04:30.668Z,26.50
2018-08-04T10:06:59.599Z,26.50
2018-08-04T10:09:28.472Z,26.30
2018-08-04T10:11:57.509Z,26.50
2018-08-04T10:14:26.388Z,26.50
2018-08-04T10:16:55.296Z,26.60
2018-08-04T10:19:24.177Z,26.60
2018-08-04T10:21:53.569Z,26.60
2018-08-04T10:24:22.465Z,26.40
2018-08-04T10:26:51.397Z,26.30
2018-08-04T10:31:48.882Z,26.40
2018-08-04T10:34:17.805Z,26.70
2018-08-04T10:36:46.761Z,26.70
2018-08-04T10:39:15.812Z,27.20
2018-08-04T10:41:44.814Z,26.60
2018-08-04T10:44:13.753Z,26.60
2018-08-04T10:46:42.841Z,26.70
2018-08-04T10:49:11.845Z,26.90
2018-08-04T10:51:40.792Z,27.10
2018-08-04T10:54:09.761Z,26.80
2018-08-04T10:56:39.122Z,26.50
2018-08-04T10:59:08.437Z,26.40
2018-08-04T11:01:37.407Z,26.30
2018-08-04T11:04:06.282Z,26.30
2018-08-04T11:06:35.207Z,26.50
2018-08-04T11:09:06.553Z,26.30
2018-08-04T11:11:35.450Z,26.40
2018-08-04T11:14:05.112Z,26.50
2018-08-04T11:16:33.984Z,26.50
2018-08-04T11:19:02.961Z,26.40
2018-08-04T11:21:31.820Z,26.50
2018-08-04T11:24:00.776Z,26.60
2018-08-04T11:26:29.664Z,27.50
2018-08-04T11:28:58.521Z,27.20
2018-08-04T11:31:27.379Z,26.80
2018-08-04T11:33:56.333Z,27.10
2018-08-04T11:36:25.224Z,26.70
2018-08-04T11:38:54.206Z,26.60
2018-08-04T11:41:23.204Z,26.50
2018-08-04T11:43:52.190Z,26.50
2018-08-04T11:46:21.044Z,26.50
2018-08-04T11:48:49.960Z,26.50
2018-08-04T11:51:18.951Z,26.60
2018-08-04T11:53:47.857Z,26.70
2018-08-04T11:56:16.744Z,26.70
2018-08-04T11:58:46.664Z,26.90
2018-08-04T12:01:15.633Z,26.70
2018-08-04T12:03:44.655Z,26.40
2018-08-04T12:06:13.504Z,26.60
2018-08-04T12:08:42.429Z,26.80
2018-08-04T12:11:11.386Z,26.90
2018-08-04T12:13:40.250Z,27.80
2018-08-04T12:16:09.500Z,27.30
2018-08-04T12:18:38.426Z,26.80
2018-08-04T12:21:07.419Z,26.60
2018-08-04T12:23:36.357Z,26.70
2018-08-04T12:26:06.026Z,26.50
2018-08-04T12:28:35.011Z,26.40
2018-08-04T12:31:03.893Z,26.30
2018-08-04T12:33:32.803Z,26.30
2018-08-04T12:36:01.700Z,26.30
2018-08-04T12:38:30.543Z,26.20
2018-08-04T12:40:59.485Z,26.20
2018-08-04T12:43:28.356Z,26.30
2018-08-04T12:45:57.254Z,26.30
2018-08-04T12:48:28.529Z,26.20
2018-08-04T12:50:58.375Z,26.30
2018-08-04T12:53:27.277Z,26.20
2018-08-04T12:55:56.293Z,26.30
2018-08-04T12:58:25.225Z,26.20
2018-08-04T13:00:54.201Z,26.10
2018-08-04T13:03:23.049Z,26.30
2018-08-04T13:05:52.204Z,26.20
2018-08-04T13:08:21.083Z,26.20
2018-08-04T13:10:50.277Z,26.10
2018-08-04T13:13:19.188Z,26.10
2018-08-04T13:15:48.072Z,26.10
2018-08-04T13:18:17.044Z,26.10
2018-08-04T13:20:45.918Z,26.10
2018-08-04T13:23:14.849Z,26.20
2018-08-04T13:25:43.952Z,26.20
2018-08-04T13:28:12.966Z,26.30
2018-08-04T13:30:42.062Z,26.30
2018-08-04T13:33:10.952Z,26.30
2018-08-04T13:35:39.911Z,26.30
2018-08-04T13:38:08.924Z,26.20
2018-08-04T13:40:37.989Z,26.30
2018-08-04T13:43:07.164Z,26.20
2018-08-04T13:45:36.085Z,26.20
2018-08-04T13:48:05.978Z,26.10
2018-08-04T13:50:34.832Z,26.10
2018-08-04T13:53:03.688Z,26.40
2018-08-04T13:55:32.593Z,26.80
2018-08-04T13:58:01.450Z,27.30
2018-08-04T14:00:31.028Z,26.70
2018-08-04T14:03:00.139Z,26.60
2018-08-04T14:05:29.633Z,26.40
2018-08-04T14:07:59.511Z,26.30
2018-08-04T14:10:28.565Z,26.40
2018-08-04T14:12:57.446Z,26.20
2018-08-04T14:15:26.320Z,26.20
2018-08-04T14:17:55.217Z,26.10
2018-08-04T14:20:24.806Z,26.20
2018-08-04T14:22:53.753Z,26.10
2018-08-04T14:25:22.649Z,26.20
2018-08-04T14:27:52.554Z,26.10
2018-08-04T14:30:21.425Z,26.40
2018-08-04T14:32:50.925Z,26.30
2018-08-04T14:35:20.026Z,26.30
2018-08-04T14:37:48.938Z,26.10
2018-08-04T14:40:17.832Z,26.10
2018-08-04T14:42:47.622Z,26.10
2018-08-04T14:45:17.126Z,26.30
2018-08-04T14:47:47.060Z,26.50
2018-08-04T14:50:16.947Z,26.50
2018-08-04T14:52:45.844Z,26.40
2018-08-04T14:55:14.842Z,26.20
2018-08-04T14:57:44.003Z,26.40
2018-08-04T15:00:12.934Z,26.40
2018-08-04T15:02:41.896Z,26.40
2018-08-04T15:05:10.818Z,26.40
2018-08-04T15:10:09.186Z,26.50
2018-08-04T15:12:38.010Z,26.60
2018-08-04T15:15:08.316Z,26.80
2018-08-04T15:17:37.325Z,26.80
2018-08-04T15:20:06.842Z,26.90
2018-08-04T15:22:36.526Z,26.80
2018-08-04T15:27:34.746Z,27.00
2018-08-04T15:30:03.892Z,27.00
2018-08-04T15:32:32.740Z,27.10
2018-08-04T15:37:30.259Z,27.00
2018-08-04T15:39:59.116Z,27.20
2018-08-04T15:42:28.032Z,27.10
2018-08-04T15:44:56.921Z,27.00
2018-08-04T15:47:25.892Z,26.80
2018-08-04T15:49:54.756Z,26.90
2018-08-04T15:52:23.739Z,26.90
2018-08-04T15:54:52.636Z,26.90
2018-08-04T15:57:21.580Z,26.80
2018-08-04T15:59:50.432Z,26.90
2018-08-04T16:02:19.320Z,27.00
2018-08-04T16:04:48.204Z,26.90
2018-08-04T16:07:17.087Z,26.70
2018-08-04T16:09:46.057Z,26.80
2018-08-04T16:12:14.952Z,26.80
2018-08-04T16:14:43.829Z,26.90
2018-08-04T16:17:20.548Z,26.90
2018-08-04T16:19:49.720Z,27.10
2018-08-04T16:22:18.605Z,26.90
2018-08-04T16:24:47.513Z,26.80
2018-08-04T16:27:16.423Z,26.90
2018-08-04T16:29:45.346Z,27.00
2018-08-04T16:32:14.303Z,26.90
2018-08-04T16:34:43.232Z,27.00
2018-08-04T16:37:12.133Z,27.00
2018-08-04T16:39:41.019Z,26.80
2018-08-04T16:42:09.939Z,26.80
2018-08-04T16:44:38.909Z,26.90
2018-08-04T16:47:07.913Z,26.90
2018-08-04T16:49:36.894Z,26.90
2018-08-04T16:52:06.080Z,27.00
2018-08-04T16:54:35.029Z,27.00
2018-08-04T16:57:03.913Z,27.20
2018-08-04T16:59:32.765Z,27.10
2018-08-04T17:02:01.604Z,27.00
2018-08-04T17:04:30.485Z,26.90
2018-08-04T17:06:59.357Z,26.80
2018-08-04T17:09:28.274Z,26.90
2018-08-04T17:11:57.128Z,26.80
2018-08-04T17:14:25.998Z,26.80
2018-08-04T17:16:54.900Z,26.90
2018-08-04T17:19:23.782Z,26.90
2018-08-04T17:21:52.907Z,27.00
2018-08-04T17:24:21.816Z,27.10
2018-08-04T17:26:50.992Z,27.10
2018-08-04T17:29:20.480Z,27.00
2018-08-04T17:31:49.376Z,27.00
2018-08-04T17:34:18.712Z,27.10
2018-08-04T17:36:47.614Z,27.00
2018-08-04T17:39:16.507Z,27.00
2018-08-04T17:41:46.629Z,27.00
2018-08-04T17:44:15.529Z,27.10
2018-08-04T17:46:44.394Z,27.10
2018-08-04T17:51:41.873Z,27.00
2018-08-04T17:54:10.765Z,27.10
2018-08-04T17:56:39.773Z,27.00
2018-08-04T17:59:08.717Z,27.00
2018-08-04T18:01:37.609Z,27.00
2018-08-04T18:04:06.460Z,27.00
2018-08-04T18:06:36.344Z,27.00
2018-08-04T18:09:08.117Z,27.00
2018-08-04T18:11:37.692Z,27.10
2018-08-04T18:14:06.888Z,27.10
2018-08-04T18:16:36.208Z,27.20
2018-08-04T18:19:05.167Z,27.20
2018-08-04T18:21:34.041Z,27.20
2018-08-04T18:24:03.000Z,27.20
2018-08-04T18:26:31.887Z,27.20
2018-08-04T18:29:00.748Z,27.20
2018-08-04T18:31:29.624Z,27.20
2018-08-04T18:33:58.518Z,27.30
2018-08-04T18:36:27.461Z,27.30
2018-08-04T18:38:56.397Z,27.20
2018-08-04T18:41:25.269Z,27.20
2018-08-04T18:43:54.219Z,27.20
2018-08-04T18:46:23.178Z,27.10
2018-08-04T18:48:52.065Z,27.20
2018-08-04T18:51:20.956Z,27.10
2018-08-04T18:53:49.831Z,27.10
2018-08-04T18:56:19.040Z,27.10
2018-08-04T18:58:47.948Z,27.10
2018-08-04T19:01:16.827Z,27.10
2018-08-04T19:03:45.748Z,27.20
2018-08-04T19:06:14.783Z,27.10
2018-08-04T19:08:45.056Z,27.10
2018-08-04T19:11:14.368Z,27.10
2018-08-04T19:13:43.340Z,27.10
2018-08-04T19:16:12.321Z,27.00
2018-08-04T19:18:41.197Z,27.10
2018-08-04T19:21:10.104Z,27.10
2018-08-04T19:23:44.483Z,27.10
2018-08-04T19:26:13.945Z,27.00
2018-08-04T19:28:42.930Z,27.00
2018-08-04T19:31:11.749Z,27.10
2018-08-04T19:33:40.608Z,27.00
2018-08-04T19:36:09.565Z,26.90
2018-08-04T19:38:38.392Z,26.90
2018-08-04T19:41:07.441Z,26.90
2018-08-04T19:43:36.896Z,26.80
2018-08-04T19:48:34.452Z,26.80
2018-08-04T19:51:03.325Z,26.80
2018-08-04T19:53:32.448Z,26.80
2018-08-04T19:56:02.205Z,26.70
2018-08-04T19:58:31.109Z,26.70
2018-08-04T20:01:00.018Z,26.70
2018-08-04T20:03:28.921Z,26.60
2018-08-04T20:05:58.888Z,26.60
2018-08-04T20:08:28.418Z,26.60
2018-08-04T20:10:57.273Z,26.50
2018-08-04T20:13:26.173Z,26.50
2018-08-04T20:15:55.079Z,26.50
2018-08-04T20:18:24.871Z,26.50
2018-08-04T20:20:53.766Z,26.50
2018-08-04T20:23:22.640Z,26.50
2018-08-04T20:28:20.271Z,26.50
2018-08-04T20:30:49.177Z,26.40
2018-08-04T20:33:18.126Z,26.50
2018-08-04T20:35:47.064Z,26.40
2018-08-04T20:38:16.044Z,26.50
2018-08-04T20:40:44.989Z,26.40
2018-08-04T20:43:14.061Z,26.30
2018-08-04T20:45:43.049Z,26.50
2018-08-04T20:48:11.929Z,26.40
2018-08-04T20:50:40.965Z,26.30
2018-08-04T20:53:09.878Z,26.30
2018-08-04T20:55:38.898Z,26.20
2018-08-04T20:58:07.840Z,26.20
2018-08-04T21:00:39.704Z,26.20
2018-08-04T21:03:09.641Z,26.10
2018-08-04T21:05:40.039Z,26.10
2018-08-04T21:08:08.943Z,26.00
2018-08-04T21:10:37.859Z,26.00
2018-08-04T21:15:35.295Z,26.00
2018-08-04T21:18:04.259Z,26.10
2018-08-04T21:20:33.132Z,26.00
2018-08-04T21:23:02.016Z,26.00
2018-08-04T21:25:30.915Z,25.90
2018-08-04T21:27:59.784Z,25.90
2018-08-04T21:30:28.668Z,25.80
2018-08-04T21:32:57.529Z,25.90
2018-08-04T21:35:27.213Z,25.90
2018-08-04T21:37:56.067Z,25.90
2018-08-04T21:40:25.677Z,25.90
2018-08-04T21:42:55.058Z,25.90
2018-08-04T21:45:24.316Z,25.90
2018-08-04T21:47:53.218Z,25.90
2018-08-04T21:50:22.127Z,25.80
2018-08-04T21:52:50.993Z,25.80
2018-08-04T21:55:19.872Z,25.70
2018-08-04T21:57:48.766Z,25.70
2018-08-04T22:00:17.653Z,25.70
2018-08-04T22:02:58.449Z,25.60
2018-08-04T22:05:28.296Z,25.60
2018-08-04T22:08:09.741Z,25.50
2018-08-04T22:10:38.657Z,25.60
2018-08-04T22:13:07.802Z,25.50
2018-08-04T22:15:36.610Z,25.50
2018-08-04T22:18:05.500Z,25.50
2018-08-04T22:20:34.478Z,25.60
2018-08-04T22:23:03.440Z,25.60
2018-08-04T22:25:32.325Z,25.60
2018-08-04T22:28:01.185Z,25.50
2018-08-04T22:30:30.058Z,25.50
2018-08-04T22:32:58.934Z,25.50
2018-08-04T22:35:27.844Z,25.40
2018-08-04T22:37:56.715Z,25.40
2018-08-04T22:40:25.631Z,25.50
2018-08-04T22:42:54.500Z,25.50
2018-08-04T22:46:12.765Z,25.30
2018-08-04T22:48:42.977Z,25.30
2018-08-04T22:51:11.898Z,25.40
2018-08-04T22:53:40.772Z,25.30
2018-08-04T22:56:09.680Z,25.30
2018-08-04T22:58:38.634Z,25.30
2018-08-04T23:03:36.132Z,25.20
2018-08-04T23:06:05.254Z,25.20
2018-08-04T23:08:34.104Z,25.30
2018-08-04T23:11:03.874Z,25.30
2018-08-04T23:13:32.782Z,25.30
2018-08-04T23:16:01.658Z,25.30
2018-08-04T23:18:30.495Z,25.20
2018-08-04T23:20:59.364Z,25.20
2018-08-04T23:23:28.276Z,25.20
2018-08-04T23:25:57.145Z,25.10
2018-08-04T23:28:26.023Z,25.10
2018-08-04T23:30:54.901Z,25.10
2018-08-04T23:33:23.879Z,25.10
2018-08-04T23:35:52.716Z,25.10
2018-08-04T23:38:21.623Z,25.00
2018-08-04T23:40:50.485Z,25.00
2018-08-04T23:43:25.921Z,25.00
2018-08-04T23:45:54.788Z,25.00
2018-08-04T23:48:23.624Z,25.00
2018-08-04T23:50:52.429Z,25.00
2018-08-04T23:53:21.284Z,25.00
2018-08-04T23:55:50.156Z,25.00
2018-08-04T23:58:19.000Z,25.00
